createdAt,value
2018-03-02T00:00:34.107Z,22.00
2018-03-02T00:02:36.520Z,26.85
2018-03-02T00:04:39.096Z,29.87
2018-03-02T00:06:41.695Z,28.42
2018-03-02T00:08:44.130Z,19.20
2018-03-02T00:10:46.637Z,24.73
2018-03-02T00:12:49.169Z,29.25
2018-03-02T00:14:51.623Z,24.40
2018-03-02T00:16:54.123Z,25.50
2018-03-02T00:18:56.587Z,24.92
2018-03-02T00:20:59.042Z,24.87
2018-03-02T00:23:01.563Z,28.05
2018-03-02T00:25:04.025Z,28.83
2018-03-02T00:27:06.526Z,31.83
2018-03-02T00:29:08.987Z,28.15
2018-03-02T00:31:11.505Z,27.67
2018-03-02T00:33:14.099Z,30.48
2018-03-02T00:35:16.690Z,32.65
2018-03-02T00:37:19.120Z,32.75
2018-03-02T00:39:21.603Z,28.45
2018-03-02T00:41:24.127Z,26.12
2018-03-02T00:43:26.577Z,24.37
2018-03-02T00:45:29.040Z,27.48
2018-03-02T00:47:31.511Z,30.58
2018-03-02T00:49:33.972Z,33.80
2018-03-02T00:51:36.413Z,25.37
2018-03-02T00:53:38.871Z,21.80
2018-03-02T00:55:41.380Z,29.10
2018-03-02T00:57:43.881Z,31.73
2018-03-02T00:59:46.342Z,26.48
2018-03-02T01:01:48.812Z,31.37
2018-03-02T01:03:51.293Z,26.12
2018-03-02T01:05:53.738Z,30.20
2018-03-02T01:07:56.505Z,29.37
2018-03-02T01:09:58.942Z,28.73
2018-03-02T01:12:01.382Z,33.83
2018-03-02T01:14:03.845Z,38.40
2018-03-02T01:16:06.285Z,19.83
2018-03-02T01:18:08.753Z,31.67
2018-03-02T01:20:11.218Z,26.27
2018-03-02T01:22:13.741Z,27.20
2018-03-02T01:24:16.227Z,28.73
2018-03-02T01:26:18.681Z,24.42
2018-03-02T01:28:21.141Z,25.83
2018-03-02T01:30:23.719Z,28.92
2018-03-02T01:32:26.226Z,24.65
2018-03-02T01:34:28.686Z,30.98
2018-03-02T01:36:31.166Z,29.42
2018-03-02T01:38:33.637Z,42.28
2018-03-02T01:40:36.073Z,27.35
2018-03-02T01:42:38.573Z,24.37
2018-03-02T01:44:41.053Z,39.20
2018-03-02T01:46:43.536Z,19.08
2018-03-02T01:48:46.126Z,24.17
2018-03-02T01:50:48.637Z,27.27
2018-03-02T01:52:51.231Z,24.73
2018-03-02T01:54:53.677Z,26.10
2018-03-02T01:56:56.212Z,31.15
2018-03-02T01:58:58.697Z,25.65
2018-03-02T02:01:01.149Z,35.28
2018-03-02T02:03:03.609Z,29.92
2018-03-02T02:05:06.191Z,22.55
2018-03-02T02:07:08.684Z,23.75
2018-03-02T02:09:11.190Z,32.40
2018-03-02T02:11:13.686Z,28.67
2018-03-02T02:13:16.159Z,29.70
2018-03-02T02:15:18.657Z,29.12
2018-03-02T02:17:21.142Z,31.60
2018-03-02T02:19:23.639Z,26.70
2018-03-02T02:21:26.090Z,19.87
2018-03-02T02:23:28.614Z,35.90
2018-03-02T02:25:31.108Z,34.03
2018-03-02T02:27:33.552Z,33.83
2018-03-02T02:29:36.041Z,32.10
2018-03-02T02:31:38.494Z,35.58
2018-03-02T02:33:41.022Z,25.35
2018-03-02T02:35:43.584Z,21.40
2018-03-02T02:37:46.041Z,24.70
2018-03-02T02:39:48.574Z,38.47
2018-03-02T02:41:51.068Z,27.95
2018-03-02T02:43:53.521Z,31.60
2018-03-02T02:45:55.977Z,25.92
2018-03-02T02:47:58.543Z,31.00
2018-03-02T02:50:01.004Z,32.00
2018-03-02T02:52:03.470Z,28.38
2018-03-02T02:54:05.918Z,25.42
2018-03-02T02:56:08.374Z,30.95
2018-03-02T02:58:10.906Z,35.75
2018-03-02T03:00:13.387Z,38.67
2018-03-02T03:02:15.862Z,27.75
2018-03-02T03:04:18.385Z,26.77
2018-03-02T03:06:20.843Z,35.75
2018-03-02T03:08:23.333Z,30.33
2018-03-02T03:10:25.951Z,31.42
2018-03-02T03:12:28.407Z,22.98
2018-03-02T03:14:30.952Z,43.25
2018-03-02T03:16:33.408Z,37.28
2018-03-02T03:18:35.898Z,19.12
2018-03-02T03:20:38.378Z,34.10
2018-03-02T03:22:40.854Z,40.83
2018-03-02T03:24:43.289Z,37.10
2018-03-02T03:26:45.815Z,42.65
2018-03-02T03:28:48.270Z,31.90
2018-03-02T03:30:50.719Z,29.42
2018-03-02T03:32:53.287Z,25.98
2018-03-02T03:34:55.888Z,27.55
2018-03-02T03:36:58.393Z,30.35
2018-03-02T03:39:00.869Z,29.00
2018-03-02T03:41:03.306Z,41.47
2018-03-02T03:43:05.773Z,32.70
2018-03-02T03:45:08.258Z,41.13
2018-03-02T03:47:10.708Z,40.45
2018-03-02T03:49:13.234Z,33.03
2018-03-02T03:51:15.754Z,32.17
2018-03-02T03:53:18.175Z,32.40
2018-03-02T03:55:20.732Z,38.22
2018-03-02T03:57:23.222Z,29.02
2018-03-02T03:59:25.699Z,45.83
2018-03-02T04:01:28.162Z,34.95
2018-03-02T04:03:30.786Z,38.58
2018-03-02T04:05:33.228Z,37.20
2018-03-02T04:07:37.202Z,33.22
2018-03-02T04:09:39.798Z,33.47
2018-03-02T04:11:42.283Z,30.37
2018-03-02T04:13:44.832Z,34.33
2018-03-02T04:15:47.323Z,32.72
2018-03-02T04:17:49.874Z,35.90
2018-03-02T04:19:52.354Z,37.67
2018-03-02T04:21:54.809Z,25.25
2018-03-02T04:23:57.263Z,44.75
2018-03-02T04:25:59.744Z,28.52
2018-03-02T04:28:02.241Z,39.03
2018-03-02T04:30:04.735Z,29.73
2018-03-02T04:32:07.325Z,34.08
2018-03-02T04:34:09.797Z,25.62
2018-03-02T04:36:12.259Z,20.80
2018-03-02T04:38:14.808Z,45.55
2018-03-02T04:40:17.349Z,26.90
2018-03-02T04:42:19.858Z,29.85
2018-03-02T04:44:22.304Z,32.75
2018-03-02T04:46:24.749Z,32.28
2018-03-02T04:48:27.340Z,33.60
2018-03-02T04:50:29.765Z,25.70
2018-03-02T04:52:32.360Z,26.92
2018-03-02T04:54:34.855Z,37.50
2018-03-02T04:56:37.449Z,42.08
2018-03-02T04:58:39.996Z,45.65
2018-03-02T05:00:42.548Z,47.17
2018-03-02T05:02:44.970Z,38.00
2018-03-02T05:04:47.496Z,38.30
2018-03-02T05:06:49.945Z,25.23
2018-03-02T05:08:52.393Z,33.58
2018-03-02T05:10:54.873Z,29.17
2018-03-02T05:12:57.334Z,39.03
2018-03-02T05:14:59.819Z,39.72
2018-03-02T05:17:02.386Z,31.30
2018-03-02T05:19:04.904Z,39.22
2018-03-02T05:21:07.347Z,48.10
2018-03-02T05:23:09.891Z,32.92
2018-03-02T05:25:12.420Z,38.70
2018-03-02T05:27:14.845Z,38.72
2018-03-02T05:29:17.333Z,41.67
2018-03-02T05:31:19.838Z,38.00
2018-03-02T05:33:22.331Z,36.13
2018-03-02T05:35:24.789Z,40.12
2018-03-02T05:37:27.262Z,35.92
2018-03-02T05:39:29.847Z,38.58
2018-03-02T05:41:32.347Z,35.28
2018-03-02T05:43:34.805Z,19.02
2018-03-02T05:45:37.410Z,30.42
2018-03-02T05:47:39.885Z,43.13
2018-03-02T05:49:42.366Z,38.75
2018-03-02T05:51:44.844Z,21.25
2018-03-02T05:53:47.330Z,30.70
2018-03-02T05:55:49.830Z,45.33
2018-03-02T05:57:52.289Z,29.15
2018-03-02T05:59:54.805Z,22.52
2018-03-02T06:01:57.300Z,28.40
2018-03-02T06:03:59.762Z,40.90
2018-03-02T06:06:02.314Z,17.00
2018-03-02T06:08:04.819Z,42.83
2018-03-02T06:10:07.327Z,38.35
2018-03-02T06:12:09.822Z,34.45
2018-03-02T06:14:12.400Z,51.70
2018-03-02T06:16:15.000Z,33.45
2018-03-02T06:18:17.571Z,34.70
2018-03-02T06:20:20.005Z,33.75
2018-03-02T06:22:22.566Z,25.23
2018-03-02T06:24:25.044Z,40.88
2018-03-02T06:26:27.550Z,39.13
2018-03-02T06:28:30.027Z,36.55
2018-03-02T06:30:32.542Z,30.00
2018-03-02T06:32:35.034Z,31.15
2018-03-02T06:34:37.524Z,24.05
2018-03-02T06:36:40.040Z,43.30
2018-03-02T06:38:42.553Z,34.65
2018-03-02T06:40:45.048Z,37.80
2018-03-02T06:42:47.538Z,36.95
2018-03-02T06:44:50.030Z,28.85
2018-03-02T06:46:52.509Z,39.90
2018-03-02T06:48:55.015Z,36.25
2018-03-02T06:50:57.572Z,35.88
2018-03-02T06:53:00.177Z,39.97
2018-03-02T06:55:02.763Z,37.53
2018-03-02T06:57:05.197Z,44.25
2018-03-02T06:59:07.700Z,41.40
2018-03-02T07:01:10.190Z,41.05
2018-03-02T07:03:12.710Z,48.87
2018-03-02T07:05:15.251Z,39.95
2018-03-02T07:07:17.746Z,45.05
2018-03-02T07:09:20.192Z,36.30
2018-03-02T07:11:22.712Z,39.30
2018-03-02T07:13:25.215Z,38.72
2018-03-02T07:15:27.695Z,29.83
2018-03-02T07:17:30.182Z,44.92
2018-03-02T07:19:32.793Z,45.38
2018-03-02T07:21:35.325Z,28.27
2018-03-02T07:23:37.822Z,38.05
2018-03-02T07:25:40.306Z,41.58
2018-03-02T07:27:42.757Z,42.60
2018-03-02T07:29:45.281Z,39.05
2018-03-02T07:31:47.711Z,41.92
2018-03-02T07:33:50.255Z,36.40
2018-03-02T07:35:52.722Z,24.85
2018-03-02T07:37:55.171Z,25.77
2018-03-02T07:39:57.733Z,19.27
2018-03-02T07:42:00.288Z,46.50
2018-03-02T07:44:02.770Z,28.23
2018-03-02T07:46:05.230Z,43.70
2018-03-02T07:48:07.801Z,32.05
2018-03-02T07:50:11.208Z,39.17
2018-03-02T07:52:13.736Z,25.77
2018-03-02T07:54:16.260Z,35.70
2018-03-02T07:56:18.705Z,47.80
2018-03-02T07:58:21.167Z,43.65
2018-03-02T08:00:23.671Z,33.47
2018-03-02T08:02:26.165Z,38.25
2018-03-02T08:04:28.703Z,24.95
2018-03-02T08:06:31.147Z,29.92
2018-03-02T08:08:33.615Z,35.70
2018-03-02T08:10:36.146Z,39.70
2018-03-02T08:12:38.639Z,22.10
2018-03-02T08:14:41.100Z,27.92
2018-03-02T08:16:43.578Z,32.83
2018-03-02T08:18:46.027Z,34.30
2018-03-02T08:20:48.466Z,44.00
2018-03-02T08:22:50.993Z,36.45
2018-03-02T08:24:53.467Z,39.38
2018-03-02T08:26:55.997Z,36.13
2018-03-02T08:28:58.476Z,30.50
2018-03-02T08:31:00.928Z,51.90
2018-03-02T08:33:03.462Z,36.85
2018-03-02T08:35:06.061Z,52.67
2018-03-02T08:37:08.656Z,31.23
2018-03-02T08:39:11.126Z,48.05
2018-03-02T08:41:13.637Z,46.37
2018-03-02T08:43:16.127Z,44.83
2018-03-02T08:45:18.578Z,47.25
2018-03-02T08:47:21.017Z,30.65
2018-03-02T08:49:23.537Z,17.95
2018-03-02T08:51:26.037Z,45.65
2018-03-02T08:53:28.491Z,26.77
2018-03-02T08:55:30.957Z,45.00
2018-03-02T08:57:34.196Z,48.80
2018-03-02T08:59:36.738Z,44.92
2018-03-02T09:01:39.158Z,56.90
2018-03-02T09:03:41.678Z,47.25
2018-03-02T09:05:44.163Z,27.20
2018-03-02T09:07:46.624Z,44.75
2018-03-02T09:09:49.156Z,33.38
2018-03-02T09:11:51.588Z,37.58
2018-03-02T09:13:54.107Z,39.67
2018-03-02T09:15:56.602Z,44.28
2018-03-02T09:17:59.106Z,47.45
2018-03-02T09:20:01.596Z,40.58
2018-03-02T09:22:04.047Z,42.03
2018-03-02T09:24:06.511Z,42.45
2018-03-02T09:26:09.117Z,26.65
2018-03-02T09:28:11.582Z,55.25
2018-03-02T09:30:14.131Z,20.70
2018-03-02T09:32:16.557Z,33.38
2018-03-02T09:34:19.176Z,49.40
2018-03-02T09:36:21.688Z,46.22
2018-03-02T09:38:24.157Z,42.88
2018-03-02T09:40:26.646Z,28.38
2018-03-02T09:42:29.138Z,31.00
2018-03-02T09:44:31.634Z,40.85
2018-03-02T09:46:34.128Z,54.78
2018-03-02T09:48:36.626Z,45.15
2018-03-02T09:50:39.093Z,54.10
2018-03-02T09:52:41.569Z,47.85
2018-03-02T09:54:44.063Z,53.85
2018-03-02T09:56:46.592Z,54.85
2018-03-02T09:58:49.063Z,40.03
2018-03-02T10:00:51.628Z,48.47
2018-03-02T10:02:54.178Z,34.78
2018-03-02T10:04:56.698Z,42.33
2018-03-02T10:06:59.133Z,39.40
2018-03-02T10:09:01.623Z,40.58
2018-03-02T10:11:04.213Z,32.20
2018-03-02T10:13:06.727Z,61.03
2018-03-02T10:15:09.182Z,32.58
2018-03-02T10:17:11.815Z,42.30
2018-03-02T10:19:14.327Z,58.63
2018-03-02T10:21:16.769Z,45.65
2018-03-02T10:23:19.309Z,43.38
2018-03-02T10:25:21.808Z,49.30
2018-03-02T10:27:24.262Z,45.35
2018-03-02T10:29:26.787Z,53.28
2018-03-02T10:31:29.313Z,45.63
2018-03-02T10:33:31.753Z,54.38
2018-03-02T10:35:34.243Z,45.20
2018-03-02T10:37:36.823Z,46.80
2018-03-02T10:39:39.358Z,45.83
2018-03-02T10:41:41.847Z,53.30
2018-03-02T10:43:44.292Z,44.25
2018-03-02T10:45:46.790Z,52.90
2018-03-02T10:47:49.333Z,58.83
2018-03-02T10:49:51.811Z,53.17
2018-03-02T10:51:54.350Z,110.18
2018-03-02T10:53:56.912Z,42.83
2018-03-02T10:55:59.418Z,61.72
2018-03-02T10:58:01.900Z,50.55
2018-03-02T11:00:04.495Z,55.60
2018-03-02T11:02:07.050Z,56.95
2018-03-02T11:04:09.584Z,50.67
2018-03-02T11:06:12.129Z,54.42
2018-03-02T11:08:14.571Z,54.00
2018-03-02T11:10:17.014Z,48.65
2018-03-02T11:12:19.520Z,46.83
2018-03-02T11:14:22.016Z,63.03
2018-03-02T11:16:24.479Z,63.38
2018-03-02T11:18:26.978Z,57.55
2018-03-02T11:20:29.525Z,44.42
2018-03-02T11:22:31.977Z,47.22
2018-03-02T11:24:34.549Z,44.75
2018-03-02T11:26:37.019Z,48.20
2018-03-02T11:28:39.609Z,51.42
2018-03-02T11:30:42.070Z,29.85
2018-03-02T11:32:44.494Z,58.75
2018-03-02T11:34:47.009Z,57.35
2018-03-02T11:36:49.496Z,38.50
2018-03-02T11:38:52.068Z,68.15
2018-03-02T11:40:54.639Z,36.28
2018-03-02T11:42:57.098Z,72.60
2018-03-02T11:44:59.690Z,55.67
2018-03-02T11:47:02.196Z,47.45
2018-03-02T11:49:04.612Z,60.83
2018-03-02T11:51:07.109Z,55.92
2018-03-02T11:53:09.610Z,45.22
2018-03-02T11:55:12.123Z,54.28
2018-03-02T11:57:14.601Z,49.72
2018-03-02T11:59:17.041Z,50.75
2018-03-02T12:01:19.491Z,53.15
2018-03-02T12:03:21.973Z,54.42
2018-03-02T12:05:24.420Z,47.83
2018-03-02T12:07:26.894Z,58.83
2018-03-02T12:09:29.465Z,50.78
2018-03-02T12:11:31.962Z,44.97
2018-03-02T12:13:34.406Z,37.45
2018-03-02T12:15:36.934Z,41.70
2018-03-02T12:17:39.414Z,49.20
2018-03-02T12:19:41.898Z,42.53
2018-03-02T12:21:44.370Z,42.47
2018-03-02T12:23:46.825Z,56.95
2018-03-02T12:25:49.410Z,50.10
2018-03-02T12:27:52.495Z,48.47
2018-03-02T12:29:54.968Z,35.28
2018-03-02T12:31:57.501Z,48.67
2018-03-02T12:34:00.011Z,38.25
2018-03-02T12:36:02.574Z,54.65
2018-03-02T12:38:05.023Z,40.25
2018-03-02T12:40:07.529Z,41.42
2018-03-02T12:42:10.016Z,46.33
2018-03-02T12:44:12.500Z,50.83
2018-03-02T12:46:14.966Z,41.67
2018-03-02T12:48:17.549Z,57.42
2018-03-02T12:50:20.146Z,53.15
2018-03-02T12:52:22.599Z,52.70
2018-03-02T12:54:25.129Z,58.28
2018-03-02T12:56:27.580Z,51.25
2018-03-02T12:58:30.035Z,54.72
2018-03-02T13:00:32.546Z,56.03
2018-03-02T13:02:35.039Z,48.58
2018-03-02T13:04:37.539Z,56.75
2018-03-02T13:06:40.057Z,49.97
2018-03-02T13:08:42.574Z,48.72
2018-03-02T13:10:45.133Z,53.95
2018-03-02T13:12:47.600Z,48.38
2018-03-02T13:14:50.184Z,61.42
2018-03-02T13:16:52.695Z,54.67
2018-03-02T13:18:55.209Z,67.03
2018-03-02T13:20:57.845Z,57.28
2018-03-02T13:23:00.335Z,51.95
2018-03-02T13:25:02.796Z,49.20
2018-03-02T13:27:17.061Z,55.90
2018-03-02T13:29:19.586Z,50.35
2018-03-02T13:31:22.185Z,51.53
2018-03-02T13:33:36.395Z,58.08
2018-03-02T13:35:38.901Z,57.35
2018-03-02T13:37:41.435Z,55.80
2018-03-02T13:39:55.814Z,49.58
2018-03-02T13:42:13.168Z,41.22
2018-03-02T13:44:15.645Z,51.97
2018-03-02T13:46:18.211Z,50.35
2018-03-02T13:48:41.228Z,47.50
2018-03-02T13:50:43.760Z,47.50
2018-03-02T13:52:46.301Z,39.90
2018-03-02T13:54:48.875Z,44.70
2018-03-02T13:57:03.116Z,53.92
2018-03-02T13:59:05.590Z,38.92
2018-03-02T14:01:08.103Z,58.97
2018-03-02T14:03:22.296Z,33.97
2018-03-02T14:05:24.820Z,84.72
2018-03-02T14:07:27.381Z,55.72
2018-03-02T14:09:29.956Z,53.60
2018-03-02T14:11:32.543Z,53.70
2018-03-02T14:13:35.145Z,49.53
2018-03-02T14:15:37.645Z,55.40
2018-03-02T14:17:40.403Z,58.00
2018-03-02T14:19:42.924Z,46.78
2018-03-02T14:21:45.410Z,56.80
2018-03-02T14:23:48.735Z,58.08
2018-03-02T14:25:51.249Z,51.35
2018-03-02T14:27:53.756Z,56.33
2018-03-02T14:29:56.267Z,48.42
2018-03-02T14:31:58.706Z,59.97
2018-03-02T14:34:01.188Z,57.30
2018-03-02T14:36:03.686Z,56.47
2018-03-02T14:38:06.298Z,43.22
2018-03-02T14:40:08.801Z,53.58
2018-03-02T14:42:11.282Z,55.75
2018-03-02T14:44:13.797Z,59.88
2018-03-02T14:46:16.261Z,54.33
2018-03-02T14:48:18.746Z,52.08
2018-03-02T14:50:21.245Z,51.45
2018-03-02T14:52:23.763Z,48.70
2018-03-02T14:54:26.293Z,48.33
2018-03-02T14:56:28.736Z,62.72
2018-03-02T14:58:31.210Z,51.67
2018-03-02T15:00:33.742Z,60.35
2018-03-02T15:02:36.202Z,65.12
2018-03-02T15:04:38.685Z,49.80
2018-03-02T15:06:41.227Z,59.95
2018-03-02T15:08:43.787Z,57.58
2018-03-02T15:10:46.315Z,55.33
2018-03-02T15:12:48.771Z,54.15
2018-03-02T15:14:51.273Z,58.17
2018-03-02T15:16:53.754Z,59.35
2018-03-02T15:18:56.319Z,65.82
2018-03-02T15:20:58.822Z,55.75
2018-03-02T15:23:01.507Z,48.05
2018-03-02T15:25:03.942Z,51.05
2018-03-02T15:27:06.456Z,57.55
2018-03-02T15:29:08.932Z,53.20
2018-03-02T15:31:11.433Z,50.80
2018-03-02T15:33:13.926Z,51.65
2018-03-02T15:35:16.416Z,56.47
2018-03-02T15:37:19.002Z,50.30
2018-03-02T15:39:21.588Z,57.55
2018-03-02T15:41:24.134Z,55.45
2018-03-02T15:43:26.687Z,66.37
2018-03-02T15:45:29.181Z,58.28
2018-03-02T15:47:31.662Z,61.88
2018-03-02T15:49:34.244Z,56.72
2018-03-02T15:51:36.719Z,54.55
2018-03-02T15:53:39.262Z,60.38
2018-03-02T15:55:41.832Z,44.50
2018-03-02T15:57:44.427Z,62.03
2018-03-02T15:59:46.923Z,47.50
2018-03-02T16:01:49.526Z,53.83
2018-03-02T16:03:51.994Z,54.33
2018-03-02T16:05:54.497Z,53.20
2018-03-02T16:07:56.967Z,59.13
2018-03-02T16:09:59.497Z,52.97
2018-03-02T16:12:01.944Z,55.70
2018-03-02T16:14:04.438Z,56.88
2018-03-02T16:16:06.903Z,54.85
2018-03-02T16:18:09.478Z,53.72
2018-03-02T16:20:12.065Z,65.00
2018-03-02T16:22:14.513Z,58.00
2018-03-02T16:24:17.037Z,57.83
2018-03-02T16:26:19.533Z,46.97
2018-03-02T16:28:22.138Z,53.97
2018-03-02T16:30:24.597Z,60.35
2018-03-02T16:32:27.323Z,62.20
2018-03-02T16:34:29.785Z,50.30
2018-03-02T16:36:32.301Z,51.20
2018-03-02T16:38:34.829Z,55.58
2018-03-02T16:40:37.403Z,60.40
2018-03-02T16:42:39.897Z,56.28
2018-03-02T16:44:42.486Z,42.22
2018-03-02T16:46:45.217Z,42.85
2018-03-02T16:48:47.754Z,54.83
2018-03-02T16:50:50.232Z,52.05
2018-03-02T16:52:52.740Z,60.95
2018-03-02T16:54:55.359Z,54.95
2018-03-02T16:56:57.867Z,43.72
2018-03-02T16:59:00.346Z,50.35
2018-03-02T17:01:02.851Z,55.90
2018-03-02T17:03:05.363Z,47.90
2018-03-02T17:05:07.838Z,59.55
2018-03-02T17:07:10.329Z,55.97
2018-03-02T17:09:12.772Z,49.00
2018-03-02T17:11:15.313Z,52.08
2018-03-02T17:13:17.850Z,56.80
2018-03-02T17:15:20.503Z,57.38
2018-03-02T17:17:23.015Z,51.65
2018-03-02T17:19:25.546Z,59.08
2018-03-02T17:21:28.094Z,55.53
2018-03-02T17:23:30.578Z,55.70
2018-03-02T17:25:33.103Z,53.28
2018-03-02T17:27:35.629Z,58.08
2018-03-02T17:29:38.098Z,46.78
2018-03-02T17:31:40.683Z,53.72
2018-03-02T17:33:43.145Z,57.47
2018-03-02T17:35:45.636Z,58.90
2018-03-02T17:37:48.097Z,62.15
2018-03-02T17:39:50.640Z,57.03
2018-03-02T17:41:53.179Z,50.17
2018-03-02T17:43:55.819Z,54.65
2018-03-02T17:45:58.334Z,61.15
2018-03-02T17:48:00.901Z,55.30
2018-03-02T17:50:03.486Z,61.55
2018-03-02T17:52:05.943Z,59.22
2018-03-02T17:54:08.495Z,40.88
2018-03-02T17:56:11.034Z,67.55
2018-03-02T17:58:13.684Z,50.20
2018-03-02T18:00:16.165Z,58.35
2018-03-02T18:02:18.768Z,60.30
2018-03-02T18:04:21.274Z,57.78
2018-03-02T18:06:23.781Z,50.45
2018-03-02T18:08:26.264Z,53.55
2018-03-02T18:10:28.839Z,48.65
2018-03-02T18:12:31.542Z,48.08
2018-03-02T18:14:34.032Z,55.53
2018-03-02T18:16:36.555Z,52.83
2018-03-02T18:18:39.024Z,53.47
2018-03-02T18:20:41.511Z,54.85
2018-03-02T18:22:43.986Z,62.72
2018-03-02T18:24:46.520Z,48.75
2018-03-02T18:26:49.094Z,53.53
2018-03-02T18:28:51.606Z,51.78
2018-03-02T18:30:54.070Z,51.25
2018-03-02T18:32:56.571Z,48.40
2018-03-02T18:34:59.180Z,50.53
2018-03-02T18:37:01.684Z,62.53
2018-03-02T18:39:04.269Z,50.55
2018-03-02T18:41:06.731Z,51.33
2018-03-02T18:43:09.344Z,48.78
2018-03-02T18:45:11.951Z,43.78
2018-03-02T18:47:14.436Z,52.20
2018-03-02T18:49:17.025Z,56.42
2018-03-02T18:51:19.625Z,45.58
2018-03-02T18:53:22.216Z,47.90
2018-03-02T18:55:24.754Z,49.13
2018-03-02T18:57:27.235Z,52.65
2018-03-02T18:59:29.805Z,50.60
2018-03-02T19:01:32.408Z,52.47
2018-03-02T19:03:34.900Z,54.72
2018-03-02T19:05:37.480Z,51.42
2018-03-02T19:07:40.079Z,49.40
2018-03-02T19:09:42.681Z,55.33
2018-03-02T19:11:45.171Z,45.92
2018-03-02T19:13:47.708Z,50.72
2018-03-02T19:15:50.200Z,54.47
2018-03-02T19:17:52.746Z,50.25
2018-03-02T19:19:55.220Z,62.47
2018-03-02T19:21:57.743Z,58.20
2018-03-02T19:24:00.253Z,53.95
2018-03-02T19:26:02.906Z,51.10
2018-03-02T19:28:05.418Z,51.95
2018-03-02T19:30:08.125Z,47.50
2018-03-02T19:32:10.736Z,56.13
2018-03-02T19:34:13.281Z,44.38
2018-03-02T19:36:15.904Z,51.45
2018-03-02T19:38:18.422Z,49.55
2018-03-02T19:40:20.935Z,51.50
2018-03-02T19:42:23.426Z,44.33
2018-03-02T19:44:26.181Z,51.35
2018-03-02T19:46:29.046Z,47.53
2018-03-02T19:48:31.897Z,45.85
2018-03-02T19:50:34.789Z,50.50
2018-03-02T19:52:37.381Z,51.45
2018-03-02T19:54:41.105Z,44.92
2018-03-02T19:56:43.696Z,50.78
2018-03-02T19:58:46.205Z,53.15
2018-03-02T20:00:48.671Z,49.30
2018-03-02T20:02:51.443Z,44.58
2018-03-02T20:04:54.088Z,50.70
2018-03-02T20:06:56.882Z,44.35
2018-03-02T20:08:59.666Z,51.33
2018-03-02T20:11:02.216Z,49.80
2018-03-02T20:13:04.786Z,48.55
2018-03-02T20:15:07.282Z,52.60
2018-03-02T20:17:10.015Z,57.30
2018-03-02T20:19:12.867Z,44.50
2018-03-02T20:21:15.670Z,45.53
2018-03-02T20:23:18.490Z,51.63
2018-03-02T20:25:21.306Z,48.72
2018-03-02T20:27:24.181Z,51.88
2018-03-02T20:29:26.755Z,44.05
2018-03-02T20:31:29.565Z,44.47
2018-03-02T20:33:32.350Z,48.45
2018-03-02T20:35:35.231Z,41.88
2018-03-02T20:37:37.760Z,43.87
2018-03-02T20:39:40.262Z,52.70
2018-03-02T20:41:42.756Z,44.78
2018-03-02T20:43:45.336Z,44.90
2018-03-02T20:45:47.867Z,49.72
2018-03-02T20:47:50.407Z,45.25
2018-03-02T20:49:52.932Z,48.35
2018-03-02T20:51:55.622Z,46.85
2018-03-02T20:53:58.246Z,43.85
2018-03-02T20:56:00.807Z,46.85
2018-03-02T20:58:03.386Z,46.95
2018-03-02T21:00:05.876Z,54.33
2018-03-02T21:02:08.493Z,45.80
2018-03-02T21:04:11.068Z,45.60
2018-03-02T21:06:13.668Z,56.83
2018-03-02T21:08:16.166Z,44.33
2018-03-02T21:10:18.634Z,47.60
2018-03-02T21:12:21.166Z,48.00
2018-03-02T21:14:23.716Z,45.33
2018-03-02T21:16:26.281Z,45.25
2018-03-02T21:18:28.767Z,47.58
2018-03-02T21:20:31.268Z,46.10
2018-03-02T21:22:33.762Z,51.37
2018-03-02T21:24:36.270Z,49.38
2018-03-02T21:26:38.847Z,55.65
2018-03-02T21:28:41.338Z,46.45
2018-03-02T21:30:43.916Z,44.10
2018-03-02T21:32:46.431Z,44.67
2018-03-02T21:34:49.027Z,44.42
2018-03-02T21:36:51.522Z,44.08
2018-03-02T21:38:54.148Z,47.42
2018-03-02T21:40:56.688Z,50.35
2018-03-02T21:42:59.238Z,46.35
2018-03-02T21:45:01.816Z,41.03
2018-03-02T21:47:04.321Z,44.85
2018-03-02T21:49:06.837Z,50.30
2018-03-02T21:51:09.409Z,39.08
2018-03-02T21:53:11.922Z,48.97
2018-03-02T21:55:14.438Z,49.83
2018-03-02T21:57:16.926Z,48.10
2018-03-02T21:59:19.488Z,47.17
2018-03-02T22:01:22.022Z,45.72
2018-03-02T22:03:24.521Z,46.75
2018-03-02T22:05:27.071Z,48.10
2018-03-02T22:07:29.581Z,47.70
2018-03-02T22:09:32.040Z,52.88
2018-03-02T22:11:34.607Z,49.47
2018-03-02T22:13:37.073Z,47.58
2018-03-02T22:15:39.675Z,43.83
2018-03-02T22:17:42.272Z,47.70
2018-03-02T22:19:44.795Z,54.33
2018-03-02T22:21:47.366Z,47.10
2018-03-02T22:23:49.972Z,43.20
2018-03-02T22:25:52.547Z,47.95
2018-03-02T22:27:55.025Z,46.22
2018-03-02T22:29:57.576Z,47.30
2018-03-02T22:32:00.054Z,49.88
2018-03-02T22:34:02.521Z,51.17
2018-03-02T22:36:05.121Z,50.80
2018-03-02T22:38:07.599Z,53.50
2018-03-02T22:40:10.108Z,47.40
2018-03-02T22:42:12.623Z,50.12
2018-03-02T22:44:15.102Z,53.87
2018-03-02T22:46:17.562Z,46.88
2018-03-02T22:48:20.111Z,47.03
2018-03-02T22:50:22.611Z,52.95
2018-03-02T22:52:25.097Z,56.08
2018-03-02T22:54:27.616Z,51.80
2018-03-02T22:56:30.151Z,53.10
2018-03-02T22:58:32.743Z,47.55
2018-03-02T23:00:35.173Z,54.42
2018-03-02T23:02:37.738Z,47.65
2018-03-02T23:04:40.292Z,50.72
2018-03-02T23:06:42.759Z,45.38
2018-03-02T23:08:45.232Z,48.60
2018-03-02T23:10:47.737Z,44.05
2018-03-02T23:12:50.246Z,49.95
2018-03-02T23:14:52.692Z,55.92
2018-03-02T23:16:55.185Z,47.50
2018-03-02T23:18:57.677Z,55.55
2018-03-02T23:21:00.168Z,51.83
2018-03-02T23:23:02.622Z,52.00
2018-03-02T23:25:05.162Z,62.20
2018-03-02T23:27:07.668Z,43.45
2018-03-02T23:29:10.123Z,49.83
2018-03-02T23:31:12.551Z,49.75
2018-03-02T23:33:15.128Z,51.15
2018-03-02T23:35:17.579Z,55.10
2018-03-02T23:37:20.114Z,53.97
2018-03-02T23:39:22.633Z,41.42
2018-03-02T23:41:25.104Z,50.03
2018-03-02T23:43:27.592Z,52.00
2018-03-02T23:45:30.087Z,50.97
2018-03-02T23:47:32.579Z,49.88
2018-03-02T23:49:35.107Z,48.05
2018-03-02T23:51:37.549Z,50.67
2018-03-02T23:53:40.059Z,54.22
2018-03-02T23:55:42.548Z,53.92
2018-03-02T23:57:45.048Z,50.88
2018-03-02T23:59:47.537Z,56.65
